Tiempo atmosférico en la estación meteorológica de Barcena de Cicero, Treto, Cantabria (10 m.)



Fecha
DESCASC
Temp. máxima en grados centígrados (hora)
DESCASC
Temp. mínima en grados centígrados (hora)
DESCASC
Temp. media en grados centígrados
DESCASC
Racha de viento máxima en m/sg (hora)
DESCASC
Velocidad máxima media en intervalos de 10 minutos(hora)
DESCASC
Precipitaciones diarias en mm
DESCASC
Precipitaciones de 00:00 a 06:00 en mm
DESCASC
Precipitaciones de 06:00 a 12:00 en mm
DESCASC
Precipitaciones de 12:00 a 18:00 en mm
DESCASC
Precipitaciones de 18:00 a 24:00 en mm
DESCASC
18-08-2019 23.9 (11:10) 16.2 (05:50) 20.1 7.22 (11:20) 4.17 (11:20) 5.6 0 0 5.4 0.2
17-08-2019 26.4 (17:20) 14.3 (07:40) 20.3 5.56 (06:00) 3.06 (15:40) 0 0 0 0 0
16-08-2019 24.8 (19:20) 12.6 (08:00) 18.7 5 (18:50) 3.06 (14:00) 0 0 0 0 0
15-08-2019 22.2 (16:50) 16.9 (00:00) 19.6 6.11 (04:30) 3.33 (04:00) 0.6 0.6 0 0 0
14-08-2019 25.7 (14:10) 13 (00:00) 19.4 6.94 (20:10) 4.17 (15:20) 0 0 0 0 0
13-08-2019 21.7 (15:50) 12.8 (00:00) 17.3 7.22 (14:00) 4.44 (19:30) 0 0 0 0 0
12-08-2019 20.7 (12:20) 14.2 (00:00) 17.5 10 (15:20) 5.28 (15:30) 2 0.8 0.6 0.6 0
11-08-2019 20.6 (11:40) 16.1 (00:00) 18.4 5.28 (16:00) 2.78 (16:00) 16.4 8.6 2 5 0.8
10-08-2019 21.9 (10:40) 19.2 (00:00) 20.6 4.72 (10:50) 2.22 (08:40) 0.6 0.4 0 0.2 0
09-08-2019 29.9 (02:20) 19.3 (00:00) 24.6 12.22 (02:10) 7.5 (13:50) 0 0 0 0 0
08-08-2019 30.4 (14:40) 18.4 (00:00) 24.4 8.06 (15:50) 5.28 (16:00) 0 0 0 0 0
07-08-2019 24.6 (12:00) 18.7 (00:00) 21.7 11.39 (15:20) 7.5 (17:10) 0 0 0 0 0
06-08-2019 24.7 (15:40) 15.7 (00:00) 20.2 5.28 (15:10) 3.89 (15:10) 0 0 0 0 0
05-08-2019 24.1 (13:40) 15.1 (00:00) 19.6 6.94 (14:20) 4.72 (14:10) 0 0 0 0 0
04-08-2019 22.5 (17:50) 16.9 (00:00) 19.7 4.17 (13:00) 2.78 (12:50) 0 0 0 0 0
03-08-2019 24 (14:50) 14.9 (00:00) 19.4 7.22 (12:40) 4.72 (14:20) 0 0 0 0 0
02-08-2019 23.1 (12:30) 17.5 (00:00) 20.3 10.83 (16:50) 7.5 (15:10) 0 0 0 0 0
01-08-2019 20.5 (17:50) 17.4 (00:00) 18.9 4.44 (14:00) 2.22 (13:50) 0.6 0.2 0.2 0 0.2
31-07-2019 21.4 (11:30) 13.3 (00:00) 17.3 9.44 (14:10) 6.39 (15:00) 0 0 0 0 0
30-07-2019 22.1 (15:30) 15 (00:00) 18.6 9.72 (13:30) 5 (14:10) 0 0 0 0 0
29-07-2019 23.8 (11:50) 14.2 (00:00) 19 6.94 (10:50) 4.17 (11:40) 0 0 0 0 0
28-07-2019 22.1 (12:10) 15.3 (00:00) 18.7 8.89 (18:20) 6.11 (18:20) 2.2 2.2 0 0 0
27-07-2019 19.8 (16:40) 15.6 (00:00) 17.7 7.22 (15:10) 3.61 (16:50) 12.2 9.6 1.6 0.8 0.2
26-07-2019 22.4 (00:00) 17.3 (00:00) 19.8 7.5 (16:10) 3.89 (16:50) 6.2 2.4 3 0.8 0
25-07-2019 26.3 (13:50) 21.1 (00:00) 23.7 6.11 (14:10) 3.33 (14:10) 0 0 0 0 0
24-07-2019 25.7 (16:40) 19.7 (00:00) 22.7 8.61 (17:10) 5.83 (17:30) 0 0 0 0 0
23-07-2019 31 (15:00) 18.2 (00:00) 24.6 9.44 (20:50) 5 (20:00) 0.4 0 0 0 0.4
22-07-2019 25.4 (15:40) 20.5 (00:00) 22.9 8.89 (13:40) 5.83 (13:00) 0 0 0 0 0
21-07-2019 23.4 (16:50) 19.4 (00:00) 21.4 7.5 (17:00) 4.72 (16:20) 0.2 0 0.2 0 0

Gráficas

Temp. máximas Temp. mínimas Temp. medias Precipitaciones Rachas de viento máximas Velocidades máximas media en intervalos de 10 minutos

Datos horarios

Fecha y hora oficial Temperatura (ºC) Velocidad del viento (km/h) Dirección del viento Racha (km/h) Dirección de racha Precipitación (mm) Presión (hPa) Tendencia (hPa) Humedad (%)
2019-08-19 23:00:00 17.4 2 Noroeste 8 Sudoeste 0 -- -- 91
2019-08-19 22:00:00 17.7 6 Sur 12 Sudeste 0 -- -- 86
2019-08-19 21:00:00 18.1 6 Sur 12 Sudeste 0 -- -- 86
2019-08-19 20:00:00 18.8 6 Sur 15 Sur 0 -- -- 84
2019-08-19 19:00:00 20.4 5 Noroeste 11 Noroeste 0 -- -- 71
2019-08-19 18:00:00 20.6 6 Norte 12 Norte 0 -- -- 70
2019-08-19 17:00:00 21.1 8 Nordeste 18 Nordeste 0 -- -- 70
2019-08-19 16:00:00 21.8 6 Nordeste 13 Este 0 -- -- 67
2019-08-19 15:00:00 20.7 5 Norte 12 Noroeste 0 -- -- 71
2019-08-19 14:00:00 19.8 0 Calma 10 Sudeste 0 -- -- 71
2019-08-19 13:00:00 18.9 4 Sudeste 15 Sur 0 -- -- 78
2019-08-19 12:00:00 18.6 6 Sudeste 22 Sur 0 -- -- 81
2019-08-19 11:00:00 17.8 9 Sur 18 Sur 0.2 -- -- 87
2019-08-19 10:00:00 16.6 8 Sur 16 Sur 0 -- -- 95
2019-08-19 09:00:00 16 5 Sur 10 Sudeste 0 -- -- 96
2019-08-19 08:00:00 15.6 2 Sudoeste 14 Sur 0 -- -- 97
2019-08-19 07:00:00 15.5 9 Sur 14 Sur 0 -- -- 97
2019-08-19 06:00:00 15.6 6 Sur 10 Sur 0 -- -- 97
2019-08-19 05:00:00 16 4 Oeste 8 Oeste 0 -- -- 97
2019-08-19 04:00:00 16.1 0 Calma 14 Sur 0 -- -- 97
2019-08-19 03:00:00 16.1 8 Sur 15 Oeste 0.2 -- -- 97
2019-08-19 02:00:00 16.4 5 Oeste 14 Oeste 0 -- -- 96
2019-08-19 01:00:00 16.7 2 Sur 9 Sur 0 -- -- 96
2019-08-19 00:00:00 16.8 5 Sur 14 Sur 0 -- -- 96
2019-08-18 23:00:00 16.7 7 Sudeste 11 Sur 0 -- -- 96
2019-08-18 22:00:00 16.7 6 Sur 16 Sudoeste 0 -- -- 96
2019-08-18 21:00:00 17 5 Sur 11 Sudoeste 0 -- -- 93
2019-08-18 20:00:00 17.2 4 Sur 20 Noroeste 0 -- -- 94
2019-08-18 19:00:00 17.8 4 Noroeste 14 Noroeste 0.2 -- -- 96
2019-08-18 18:00:00 17.9 7 Norte 19 Noroeste 3.2 -- -- 96
2019-08-18 17:00:00 18.4 6 Oeste 17 Noroeste 0 -- -- 95
2019-08-18 16:00:00 18.5 12 Norte 26 Noroeste 1.8 -- -- 95
2019-08-18 15:00:00 19.9 8 Norte 21 Noroeste 0.4 -- -- 93
2019-08-18 14:00:00 21.3 12 Noroeste 25 Noroeste 0 -- -- 89
2019-08-18 13:00:00 21.9 7 Noroeste 18 Noroeste 0 -- -- 87
2019-08-18 12:00:00 21.9 8 Noroeste 26 Norte 0 -- -- 86
2019-08-18 11:00:00 23.8 5 Noroeste 11 Noroeste 0 -- -- 77
2019-08-18 10:00:00 20.7 6 Sur 12 Sur 0 -- -- 91
2019-08-18 09:00:00 19.1 10 Sur 20 Sur 0 -- -- 93
2019-08-18 08:00:00 17.9 5 Sur 15 Sur 0 -- -- 97
2019-08-18 07:00:00 16.9 6 Sur 16 Sudeste 0 -- -- 97
2019-08-18 06:00:00 16.2 0 Calma -- -- 0 -- -- 96
2019-08-18 05:00:00 16.9 0 Calma 7 Sudoeste 0 -- -- 95
2019-08-18 04:00:00 17.6 4 Sudoeste 19 Sur 0 -- -- 95
2019-08-18 03:00:00 18 9 Sur 16 Sur 0 -- -- 95
2019-08-18 02:00:00 17.9 5 Sur 11 Sur 0 -- -- 94
2019-08-18 01:00:00 18.9 0 Calma 6 Sur 0 -- -- 91
2019-08-18 00:00:00 19.7 3 Sur 10 Sur 0 -- -- 89
2019-08-17 23:00:00 20.3 7 Sur 13 Sur 0 -- -- 88
2019-08-17 22:00:00 21 0 Calma 4 Noroeste 0 -- -- 84
2019-08-17 21:00:00 23.6 0 Calma 12 Este 0 -- -- 74
2019-08-17 20:00:00 24.7 7 Nordeste 13 Este 0 -- -- 68
2019-08-17 19:00:00 25.4 8 Nordeste 15 Este 0 -- -- 66
2019-08-17 18:00:00 26.2 8 Nordeste 14 Este 0 -- -- 64
2019-08-17 17:00:00 26.2 7 Nordeste 15 Nordeste 0 -- -- 64
2019-08-17 16:00:00 25.6 9 Nordeste 17 Este 0 -- -- 64
2019-08-17 15:00:00 26 10 Nordeste 18 Nordeste 0 -- -- 64
2019-08-17 14:00:00 25.4 9 Nordeste 16 Nordeste 0 -- -- 67
2019-08-17 13:00:00 25 8 Nordeste 17 Este 0 -- -- 65
2019-08-17 12:00:00 25 8 Este 12 Nordeste 0 -- -- 67
2019-08-17 11:00:00 23 4 Sudeste 12 Sur 0 -- -- 70
2019-08-17 10:00:00 19.8 8 Sur 15 Sur 0 -- -- 81
2019-08-17 09:00:00 16.7 8 Sur 14 Sudeste 0 -- -- 93
2019-08-17 08:00:00 14.8 9 Sur 14 Sudeste 0 -- -- 97
2019-08-17 07:00:00 14.9 6 Sur 14 Sudeste 0 -- -- 95
2019-08-17 06:00:00 15 8 Sur 20 Sudeste 0 -- -- 96
2019-08-17 05:00:00 15.3 8 Sur 14 Sudeste 0 -- -- 96
2019-08-17 04:00:00 15.7 8 Sur 19 Sur 0 -- -- 94
2019-08-17 03:00:00 16.1 7 Sur 13 Sur 0 -- -- 94
2019-08-17 02:00:00 16.2 8 Sur 12 Sur 0 -- -- 94
2019-08-17 01:00:00 16.8 4 Sur 10 Sur 0 -- -- 91
2019-08-17 00:00:00 16.9 0 Calma 0 Calma 0 -- -- 90
2019-08-16 23:00:00 17.9 0 Calma 2 Noroeste 0 -- -- 86
2019-08-16 22:00:00 19.6 2 Norte 5 Noroeste 0 -- -- 78
2019-08-16 21:00:00 22.3 4 Noroeste 9 Noroeste 0 -- -- 66
2019-08-16 20:00:00 23.7 5 Noroeste 17 Noroeste 0 -- -- 61
2019-08-16 19:00:00 24.4 8 Norte 18 Nordeste 0 -- -- 60
2019-08-16 18:00:00 24 5 Nordeste 13 Nordeste 0 -- -- 66
2019-08-16 17:00:00 23.9 7 Nordeste 17 Este 0 -- -- 68
2019-08-16 16:00:00 23.8 9 Nordeste 16 Nordeste 0 -- -- 69
2019-08-16 15:00:00 23.6 9 Nordeste 16 Nordeste 0 -- -- 67
2019-08-16 14:00:00 22.7 11 Este 17 Este 0 -- -- 68
2019-08-16 13:00:00 23 8 Nordeste 13 Nordeste 0 -- -- 69
2019-08-16 12:00:00 22.2 6 Este 10 Nordeste 0 -- -- 70
2019-08-16 11:00:00 20.5 3 Sudeste 13 Sudeste 0 -- -- 75
2019-08-16 10:00:00 17.4 7 Sudeste 17 Sudeste 0 -- -- 87
2019-08-16 09:00:00 14.5 9 Sur 17 Sur 0 -- -- 98
2019-08-16 08:00:00 12.6 7 Sur 16 Sur 0 -- -- 98
2019-08-16 07:00:00 12.8 9 Sur 13 Sur 0 -- -- 98
2019-08-16 06:00:00 13.1 6 Sur 14 Sur 0 -- -- 97
2019-08-16 05:00:00 13.2 3 Sudoeste 8 Sur 0 -- -- 96
2019-08-16 04:00:00 14.3 5 Sur 16 Sur 0 -- -- 97
2019-08-16 03:00:00 14.1 8 Sur 13 Sur 0 -- -- 97
2019-08-16 02:00:00 14.3 0 Calma 5 Norte 0 -- -- 94
2019-08-16 01:00:00 16 0 Calma 8 Sur 0 -- -- 90
2019-08-16 00:00:00 16.9 4 Sur 9 Sur 0 -- -- 89
2019-08-15 23:00:00 18.1 2 Noroeste 4 Oeste 0 -- -- 82
2019-08-15 22:00:00 19.4 0 Calma 10 Nordeste 0 -- -- 72
2019-08-15 21:00:00 20.4 5 Nordeste 13 Este 0 -- -- 67
2019-08-15 20:00:00 21.2 7 Este 14 Este 0 -- -- 63
2019-08-15 19:00:00 21.5 8 Nordeste 15 Nordeste 0 -- -- 62
2019-08-15 18:00:00 21.6 8 Nordeste 18 Este 0 -- -- 64
2019-08-15 17:00:00 22.2 7 Norte 15 Norte 0 -- -- 63
2019-08-15 16:00:00 22 7 Norte 15 Nordeste 0 -- -- 66
2019-08-15 15:00:00 21.6 8 Nordeste 17 Norte 0 -- -- 62
2019-08-15 14:00:00 21.4 6 Nordeste 17 Nordeste 0 -- -- 64
2019-08-15 13:00:00 21.8 5 Norte 15 Norte 0 -- -- 66
2019-08-15 12:00:00 20.9 4 Noroeste 13 Oeste 0 -- -- 70
2019-08-15 11:00:00 20.6 5 Oeste 16 Oeste 0 -- -- 77
2019-08-15 10:00:00 19.4 6 Noroeste 12 Noroeste 0 -- -- 86
2019-08-15 09:00:00 18.6 4 Sudoeste 10 Sudoeste 0 -- -- 93
2019-08-15 08:00:00 18.1 4 Oeste 11 Oeste 0 -- -- 93
2019-08-15 07:00:00 18.2 3 Oeste 15 Noroeste 0 -- -- 93
2019-08-15 06:00:00 18.2 8 Oeste 19 Oeste 0.2 -- -- 94
2019-08-15 05:00:00 18.3 9 Noroeste 22 Noroeste 0 -- -- 95
2019-08-15 04:00:00 19.5 12 Noroeste 20 Noroeste 0 -- -- 94
2019-08-15 03:00:00 20.3 7 Noroeste 18 Noroeste 0 -- -- 95
2019-08-15 02:00:00 20.3 0 Calma 5 Noroeste 0.2 -- -- 95
2019-08-15 01:00:00 20.4 0 Calma 8 Oeste 0.2 -- -- 93
2019-08-15 00:00:00 20.6 4 Oeste 9 Noroeste 0 -- -- 90
2019-08-14 23:00:00 21.1 6 Oeste 14 Oeste 0 -- -- 81
2019-08-14 22:00:00 22 8 Noroeste 19 Noroeste 0 -- -- 74
2019-08-14 21:00:00 22.3 6 Oeste 25 Noroeste 0 -- -- 69
2019-08-14 20:00:00 23.5 10 Noroeste 19 Noroeste 0 -- -- 60
2019-08-14 19:00:00 24.2 8 Norte 21 Oeste 0 -- -- 60
2019-08-14 18:00:00 24.1 11 Noroeste 21 Noroeste 0 -- -- 56
2019-08-14 17:00:00 24.7 9 Oeste 22 Oeste 0 -- -- 49
2019-08-14 16:00:00 24.9 11 Noroeste 25 Noroeste 0 -- -- 42
2019-08-14 15:00:00 25.5 11 Noroeste 22 Norte 0 -- -- 37
2019-08-14 14:00:00 24.8 7 Nordeste 22 Noroeste 0 -- -- 60
2019-08-14 13:00:00 23.7 9 Nordeste 14 Nordeste 0 -- -- 66
2019-08-14 12:00:00 23.6 5 Este 9 Sudeste 0 -- -- 59
2019-08-14 11:00:00 20.8 5 Sudeste 14 Sur 0 -- -- 73
2019-08-14 10:00:00 17.7 8 Sur 14 Sur 0 -- -- 83
2019-08-14 09:00:00 15.3 6 Sur 16 Sudeste 0 -- -- 93
2019-08-14 08:00:00 13.4 9 Sur 17 Sudeste 0 -- -- 96
2019-08-14 07:00:00 13.2 7 Sur 16 Sudeste 0 -- -- 96
2019-08-14 06:00:00 13.3 6 Sur 15 Sudeste 0 -- -- 94
2019-08-14 05:00:00 13.3 3 Sur 13 Sur 0 -- -- 95
2019-08-14 04:00:00 14 5 Sur 18 Sudeste 0 -- -- 94
2019-08-14 03:00:00 13.9 9 Sur 19 Sudeste 0 -- -- 94
2019-08-14 02:00:00 13.9 6 Sur 13 Sudeste 0 -- -- 92
2019-08-14 01:00:00 14.5 4 Sur 14 Sur 0 -- -- 91
2019-08-14 00:00:00 15.1 5 Sur 10 Sur 0 -- -- 89
2019-08-13 23:00:00 16.3 0 Calma 12 Sur 0 -- -- 82
2019-08-13 22:00:00 17.9 4 Sur 14 Nordeste 0 -- -- 75
2019-08-13 21:00:00 19.6 10 Este 22 Este 0 -- -- 69
2019-08-13 20:00:00 20.5 15 Este 24 Nordeste 0 -- -- 65
2019-08-13 19:00:00 21.1 13 Nordeste 22 Este 0 -- -- 63
2019-08-13 18:00:00 21.4 13 Nordeste 22 Este 0 -- -- 61
2019-08-13 17:00:00 21.5 13 Nordeste 23 Este 0 -- -- 58
2019-08-13 16:00:00 21.4 15 Nordeste 25 Este 0 -- -- 62
2019-08-13 15:00:00 21.4 13 Nordeste 23 Este 0 -- -- 68
2019-08-13 14:00:00 21 15 Este 26 Este 0 -- -- 65
2019-08-13 13:00:00 21.4 12 Nordeste 18 Este -- -- -- 62
2019-08-13 12:00:00 21.3 5 Este 11 Este -- -- -- 65
2019-08-13 11:00:00 19.7 3 Sudeste 14 Sudeste -- -- -- 72
2019-08-13 10:00:00 15.9 8 Sur 17 Sur -- -- -- 92
2019-08-13 09:00:00 14.3 8 Sur 16 Sur 0 -- -- 97
2019-08-13 08:00:00 13.1 7 Sur 15 Sur 0 -- -- 98
2019-08-13 07:00:00 12.8 5 Sur 15 Sur 0 -- -- 97
2019-08-13 06:00:00 13.3 8 Sur 13 Sur 0 -- -- 96
2019-08-13 05:00:00 14 4 Sur 14 Sur 0 -- -- 94
2019-08-13 04:00:00 14.3 8 Sur 15 Sudeste 0 -- -- 96
2019-08-13 03:00:00 14.3 5 Sur 10 Sur 0 -- -- 95
2019-08-13 02:00:00 14.7 4 Sur 12 Sudeste 0 -- -- 94
2019-08-13 01:00:00 15 7 Sur 11 Sur 0 -- -- 94
2019-08-13 00:00:00 15.3 5 Sur 10 Sur 0 -- -- 92
2019-08-12 23:00:00 15.8 3 Sur 8 Sur 0 -- -- 90
2019-08-12 22:00:00 16.4 0 Calma 5 Oeste 0 -- -- 86
2019-08-12 21:00:00 18.5 4 Oeste 12 Noroeste 0 -- -- 75
2019-08-12 20:00:00 19.6 6 Norte 21 Noroeste 0 -- -- 70
2019-08-12 19:00:00 20.6 11 Noroeste 21 Noroeste 0 -- -- 68
2019-08-12 18:00:00 20.3 9 Noroeste 23 Sudoeste 0 -- -- 75
2019-08-12 17:00:00 19.5 10 Oeste 19 Oeste 0.6 -- -- 82
2019-08-12 16:00:00 18 12 Oeste 36 Noroeste 0 -- -- 81
2019-08-12 15:00:00 20.7 14 Noroeste 32 Noroeste 0 -- -- 64
2019-08-12 14:00:00 20 9 Oeste 28 Oeste 0 -- -- 69
2019-08-12 13:00:00 19.1 13 Noroeste 30 Oeste 0 -- -- 69
2019-08-12 12:00:00 19.9 15 Oeste 31 Noroeste 0 -- -- 70
2019-08-12 11:00:00 19 13 Oeste 33 Oeste 0 -- -- 71
2019-08-12 10:00:00 17 4 Noroeste 10 Sudoeste 0 -- -- 81
2019-08-12 09:00:00 16.1 0 Calma 14 Sudoeste 0 -- -- 89
2019-08-12 08:00:00 14.9 4 Sur 6 Sur 0 -- -- 93
2019-08-12 07:00:00 15.2 5 Noroeste 15 Oeste 0.6 -- -- 91
2019-08-12 06:00:00 15.4 4 Oeste 17 Oeste 0.2 -- -- 87
2019-08-12 05:00:00 14.5 5 Oeste 15 Noroeste 0.2 -- -- 91
2019-08-12 04:00:00 14.4 7 Sur 12 Sur 0 -- -- 94
2019-08-12 03:00:00 15.1 8 Sur 14 Sur 0 -- -- 95
2019-08-12 02:00:00 15.6 4 Sur 11 Sur 0 -- -- 94
2019-08-12 01:00:00 15.7 4 Sudoeste 12 Sudoeste 0.4 -- -- 91
2019-08-12 00:00:00 16.3 3 Oeste 13 Oeste 0 -- -- 87
2019-08-11 23:00:00 16.4 5 Noroeste 11 Sur 0 -- -- 90
2019-08-11 22:00:00 17 3 Sur 9 Noroeste 0 -- -- 89
2019-08-11 21:00:00 18.2 0 Calma 7 Noroeste 0 -- -- 89
2019-08-11 20:00:00 18.5 2 Sudoeste 9 Sur 0 -- -- 89
2019-08-11 19:00:00 18.4 5 Sudoeste 9 Oeste 0.8 -- -- 92
2019-08-11 18:00:00 18.6 5 Noroeste 12 Noroeste 0 -- -- 85
2019-08-11 17:00:00 18.7 4 Nordeste 15 Norte 0.2 -- -- 87
2019-08-11 16:00:00 18.6 10 Norte 19 Norte 0 -- -- 87
2019-08-11 15:00:00 18.2 3 Oeste 13 Sudoeste 1.8 -- -- 90
2019-08-11 14:00:00 18.3 4 Oeste 8 Oeste 0.2 -- -- 89
2019-08-11 13:00:00 17.9 6 Noroeste 15 Norte 2.8 -- -- 93
2019-08-11 12:00:00 20.2 2 Este 11 Sudeste 0 -- -- 79
2019-08-11 11:00:00 19 7 Sur 12 Sudeste 0 -- -- 90
2019-08-11 10:00:00 17.4 4 Sur 9 Sudoeste 0 -- -- 95
2019-08-11 09:00:00 16.6 0 Calma 12 Sur 0 -- -- 97
2019-08-11 08:00:00 16.2 6 Sur 14 Sudeste 0.6 -- -- 97
2019-08-11 07:00:00 16.3 6 Sur 17 Sur 1.4 -- -- 97
2019-08-11 06:00:00 16.9 5 Sudeste 12 Sur 3.6 -- -- 97
2019-08-11 05:00:00 17.3 6 Sur 13 Sudeste 4.8 -- -- 96
2019-08-11 04:00:00 18 9 Sudeste 15 Sudeste 0.2 -- -- 92
2019-08-11 03:00:00 18.3 5 Sur 9 Sur 0 -- -- 91
2019-08-11 02:00:00 18.5 0 Calma 2 Noroeste 0 -- -- 90
2019-08-11 01:00:00 18.7 0 Calma 3 Norte 0 -- -- 88
2019-08-11 00:00:00 19.2 3 Sur 8 Sur 0 -- -- 84
2019-08-10 23:00:00 19.4 4 Sur 8 Sur 0 -- -- 82
2019-08-10 22:00:00 20.1 2 Noroeste 5 Noroeste 0 -- -- 75
2019-08-10 21:00:00 20.8 2 Noroeste 8 Norte 0 -- -- 71
2019-08-10 20:00:00 21.2 4 Norte 8 Norte 0 -- -- 68
2019-08-10 19:00:00 21.5 4 Norte 10 Norte 0 -- -- 65
2019-08-10 18:00:00 21.9 5 Norte 10 Norte 0 -- -- 68
2019-08-10 17:00:00 21.6 5 Norte 13 Nordeste 0 -- -- 63
2019-08-10 16:00:00 21.6 6 Nordeste 14 Norte 0 -- -- 65
2019-08-10 15:00:00 21.3 5 Nordeste 13 Norte 0 -- -- 67
2019-08-10 14:00:00 21.7 5 Este 9 Este 0 -- -- 70
2019-08-10 13:00:00 20.8 4 Sudeste 9 Sudoeste 0.2 -- -- 82
2019-08-10 12:00:00 21.3 4 Nordeste 14 Norte 0 -- -- 74
2019-08-10 11:00:00 21.8 6 Norte 17 Nordeste 0 -- -- 70
2019-08-10 10:00:00 20.9 6 Sudeste 9 Sudeste 0 -- -- 90
2019-08-10 09:00:00 19.5 4 Sudoeste 11 Sur 0 -- -- 94
2019-08-10 08:00:00 19.4 3 Oeste 8 Sur 0 -- -- 94
2019-08-10 07:00:00 19.4 0 Calma 8 Sur 0 -- -- 94
2019-08-10 06:00:00 19.7 0 Calma 5 Sudoeste 0 -- -- 94
2019-08-10 05:00:00 19.9 0 Calma 5 Sudoeste 0.2 -- -- 94
2019-08-10 04:00:00 20 0 Calma 7 Noroeste 0 -- -- 95
2019-08-10 03:00:00 19.8 3 Nordeste 9 Sur 0.2 -- -- 94
2019-08-10 02:00:00 19.6 0 Calma 6 Sur 0 -- -- 94
2019-08-10 01:00:00 19.5 2 Sur 6 Sur 0 -- -- 94
2019-08-10 00:00:00 19.5 3 Sur 6 Sur 0 -- -- 92
2019-08-09 23:00:00 20.2 0 Calma 6 Sudeste 0 -- -- 86
2019-08-09 22:00:00 21.7 0 Calma 7 Nordeste 0 -- -- 80
2019-08-09 21:00:00 22.9 3 Sudeste 9 Este 0 -- -- 75
2019-08-09 20:00:00 23.4 3 Este 13 Este 0 -- -- 75
2019-08-09 19:00:00 23.2 6 Nordeste 13 Nordeste 0 -- -- 76
2019-08-09 18:00:00 23.3 7 Nordeste 21 Este 0 -- -- 75
2019-08-09 17:00:00 24.1 9 Nordeste 20 Nordeste 0 -- -- 73
2019-08-09 16:00:00 23.5 9 Nordeste 23 Nordeste 0 -- -- 75
2019-08-09 15:00:00 22.9 12 Nordeste 39 Este 0 -- -- 77
2019-08-09 14:00:00 22.8 24 Nordeste 41 Este 0 -- -- 78
2019-08-09 13:00:00 23.6 21 Nordeste 33 Este 0 -- -- 77
2019-08-09 12:00:00 23.9 8 Nordeste 19 Nordeste 0 -- -- 75
2019-08-09 11:00:00 23 11 Este 20 Este 0 -- -- 80
2019-08-09 10:00:00 23.3 6 Nordeste 10 Nordeste 0 -- -- 80
2019-08-09 09:00:00 23 5 Nordeste 17 Noroeste 0 -- -- 82
2019-08-09 08:00:00 22.7 6 Norte 42 Noroeste 0 -- -- 83
2019-08-09 07:00:00 28.9 10 Sudoeste 27 Sur 0 -- -- 46
2019-08-09 06:00:00 27.7 10 Sur 23 Oeste 0 -- -- 48
2019-08-09 05:00:00 25.9 5 Sur 15 Sudoeste 0 -- -- 55
2019-08-09 04:00:00 26 2 Sudoeste 12 Sur 0 -- -- 58
2019-08-09 03:00:00 27.1 5 Sur 44 Oeste 0 -- -- 55
2019-08-09 02:00:00 29 9 Sudoeste 32 Sudoeste 0 -- -- 50
2019-08-09 01:00:00 28.1 10 Oeste 20 Noroeste 0 -- -- 57
2019-08-09 00:00:00 24.5 4 Sudoeste 13 Sudeste 0 -- -- 76
2019-08-08 23:00:00 24.4 6 Sur 14 Sur 0 -- -- 79
2019-08-08 22:00:00 24.3 5 Sur 10 Sur 0 -- -- 80
2019-08-08 21:00:00 26.4 3 Noroeste 10 Nordeste 0 -- -- 69
2019-08-08 20:00:00 27.8 5 Este 19 Nordeste 0 -- -- 65
2019-08-08 19:00:00 29.1 9 Nordeste 26 Este 0 -- -- 60
2019-08-08 18:00:00 29.3 12 Nordeste 28 Nordeste 0 -- -- 59
2019-08-08 17:00:00 28.3 13 Nordeste 26 Este 0 -- -- 66
2019-08-08 16:00:00 29.8 19 Este 29 Nordeste 0 -- -- 59
2019-08-08 15:00:00 30.2 16 Nordeste 25 Nordeste 0 -- -- 56
2019-08-08 14:00:00 29.9 11 Nordeste 16 Este 0 -- -- 59
2019-08-08 13:00:00 28.8 8 Este 17 Este 0 -- -- 64
2019-08-08 12:00:00 27.7 8 Nordeste 14 Este 0 -- -- 67
2019-08-08 11:00:00 28.1 3 Este 8 Este 0 -- -- 69
2019-08-08 10:00:00 24.9 4 Este 9 Sur 0 -- -- 79
2019-08-08 09:00:00 21.1 4 Sur 8 Sur 0 -- -- 97
2019-08-08 08:00:00 18.6 5 Sur 9 Sur 0 -- -- 98
2019-08-08 07:00:00 18.6 5 Sudeste 12 Sur 0 -- -- 98
2019-08-08 06:00:00 19 4 Sur 10 Sudeste 0 -- -- 98
2019-08-08 05:00:00 19.5 4 Sur 8 Sur 0 -- -- 97
2019-08-08 04:00:00 20 5 Sur 9 Sudoeste 0 -- -- 95
2019-08-08 03:00:00 20.6 5 Sur 11 Sur 0 -- -- 95
2019-08-08 02:00:00 21.6 2 Sur 4 Noroeste 0 -- -- 95
2019-08-08 01:00:00 22 0 Calma 8 Norte 0 -- -- 94
2019-08-08 00:00:00 22.1 4 Noroeste 9 Nordeste 0 -- -- 94
2019-08-07 23:00:00 22.7 4 Norte 15 Nordeste 0 -- -- 91
2019-08-07 22:00:00 22.8 7 Nordeste 18 Nordeste 0 -- -- 89
2019-08-07 21:00:00 23 8 Nordeste 20 Este 0 -- -- 87
2019-08-07 20:00:00 23.4 10 Nordeste 29 Este 0 -- -- 84
2019-08-07 19:00:00 23.7 19 Nordeste 33 Este 0 -- -- 81
2019-08-07 18:00:00 24.5 18 Nordeste 36 Nordeste 0 -- -- 79
2019-08-07 17:00:00 24.1 24 Nordeste 39 Este 0 -- -- 81
2019-08-07 16:00:00 24.1 22 Nordeste 41 Nordeste 0 -- -- 81
2019-08-07 15:00:00 24.3 23 Nordeste 35 Nordeste 0 -- -- 80
2019-08-07 14:00:00 24.4 16 Nordeste 34 Nordeste 0 -- -- 75
2019-08-07 13:00:00 24.4 13 Nordeste 22 Este 0 -- -- 76
2019-08-07 12:00:00 24.6 9 Nordeste 15 Nordeste 0 -- -- 73
2019-08-07 11:00:00 24.2 6 Nordeste 9 Nordeste 0 -- -- 77
2019-08-07 10:00:00 22.4 5 Sudeste 9 Sudeste 0 -- -- 83
2019-08-07 09:00:00 20.5 2 Sudeste 6 Sur 0 -- -- 94
2019-08-07 08:00:00 18.7 3 Sur 7 Sur 0 -- -- 95
2019-08-07 07:00:00 19 3 Sur 8 Sudeste 0 -- -- 95
2019-08-07 06:00:00 19.1 3 Sur 10 Sur 0 -- -- 94
2019-08-07 05:00:00 19.2 3 Noroeste 5 Noroeste 0 -- -- 94
2019-08-07 04:00:00 19.5 4 Noroeste 15 Sur 0 -- -- 93
2019-08-07 03:00:00 19.6 4 Sudeste 15 Sur 0 -- -- 93
2019-08-07 02:00:00 19.6 8 Sur 17 Sudeste 0 -- -- 93
2019-08-07 01:00:00 20 6 Sur 13 Sur 0 -- -- 92
2019-08-07 00:00:00 20.6 5 Sudeste 11 Sur 0 -- -- 88
2019-08-06 23:00:00 21.1 4 Noroeste 8 Sudeste 0 -- -- 85
2019-08-06 22:00:00 21.7 3 Sur 10 Noroeste 0 -- -- 82
2019-08-06 21:00:00 22.3 6 Noroeste 14 Oeste 0 -- -- 79
2019-08-06 20:00:00 22.9 3 Noroeste 14 Noroeste 0 -- -- 73
2019-08-06 19:00:00 23.6 8 Noroeste 15 Norte 0 -- -- 72
2019-08-06 18:00:00 23.6 8 Nordeste 15 Este 0 -- -- 81
2019-08-06 17:00:00 23.9 8 Nordeste 18 Este 0 -- -- 81
2019-08-06 16:00:00 24.3 10 Nordeste 19 Nordeste 0 -- -- 80
2019-08-06 15:00:00 24.1 11 Nordeste 18 Este 0 -- -- 81
2019-08-06 14:00:00 24 10 Nordeste 17 Este 0 -- -- 80
2019-08-06 13:00:00 23.7 8 Nordeste 19 Nordeste 0 -- -- 80
2019-08-06 12:00:00 22.7 6 Nordeste 11 Nordeste 0 -- -- 79
2019-08-06 11:00:00 22.3 5 Este 8 Este 0 -- -- 78
2019-08-06 10:00:00 19.3 4 Sudeste 11 Sudeste 0 -- -- 90
2019-08-06 09:00:00 17.3 5 Sur 9 Sur 0 -- -- 97
2019-08-06 08:00:00 16 6 Sur 15 Sur 0 -- -- 97
2019-08-06 07:00:00 16 6 Sur 13 Sudeste 0 -- -- 98
2019-08-06 06:00:00 16.1 5 Sur 11 Sudoeste 0 -- -- 98
2019-08-06 05:00:00 15.9 4 Sudoeste 10 Sudoeste 0 -- -- 98
2019-08-06 04:00:00 16.3 7 Sur 10 Sur 0 -- -- 98
2019-08-06 03:00:00 16.4 3 Sur 9 Sur 0 -- -- 97
2019-08-06 02:00:00 17 5 Sur 9 Sur 0 -- -- 96
2019-08-06 01:00:00 17.6 4 Sur 8 Sur 0 -- -- 95
2019-08-06 00:00:00 18.1 3 Sur 6 Sur 0 -- -- 93
2019-08-05 23:00:00 19.5 2 Noroeste 4 Oeste 0 -- -- 90
2019-08-05 22:00:00 21.2 5 Este 11 Este 0 -- -- 86
2019-08-05 21:00:00 22.2 6 Nordeste 15 Nordeste 0 -- -- 82
2019-08-05 20:00:00 22.7 11 Nordeste 18 Nordeste 0 -- -- 80
2019-08-05 19:00:00 22.5 10 Nordeste 20 Nordeste 0 -- -- 81
2019-08-05 18:00:00 22.7 12 Este 22 Nordeste 0 -- -- 80
2019-08-05 17:00:00 23.8 10 Nordeste 21 Nordeste 0 -- -- 75
2019-08-05 16:00:00 23 12 Este 24 Este 0 -- -- 82
2019-08-05 15:00:00 -- 14 Nordeste 25 Nordeste 0 -- -- --
2019-08-05 14:00:00 23.7 17 Este 24 Nordeste 0 -- -- 76
2019-08-05 13:00:00 23.8 10 Nordeste 19 Nordeste 0 -- -- 77
2019-08-05 12:00:00 23 11 Nordeste 16 Nordeste 0 -- -- 79
2019-08-05 11:00:00 22.4 5 Nordeste 10 Sudeste 0 -- -- 77
2019-08-05 10:00:00 19.9 6 Sudeste 17 Sudeste 0 -- -- 88
2019-08-05 09:00:00 17.3 10 Sur 18 Sudeste 0 -- -- 98
2019-08-05 08:00:00 15.5 6 Sur 15 Sudeste 0 -- -- 99
2019-08-05 07:00:00 15.1 7 Sur 13 Sur 0 -- -- 99
2019-08-05 06:00:00 15.4 5 Sur 14 Sudeste 0 -- -- 98
2019-08-05 05:00:00 15.8 8 Sur 14 Sur 0 -- -- 98
2019-08-05 04:00:00 15.9 4 Sur 10 Sudoeste 0 -- -- 98
2019-08-05 03:00:00 16.4 5 Sur 9 Sur 0 -- -- 97
2019-08-05 02:00:00 16.4 0 Calma 8 Sur 0 -- -- 96
2019-08-05 01:00:00 17.1 0 Calma 9 Sur 0 -- -- 95
2019-08-05 00:00:00 18.1 3 Sur 6 Sur 0 -- -- 94
2019-08-04 23:00:00 18.8 3 Sur 5 Sur 0 -- -- 92
2019-08-04 22:00:00 20.1 0 Calma 4 Noroeste 0 -- -- 87
2019-08-04 21:00:00 21.9 3 Norte 5 Nordeste 0 -- -- 81
2019-08-04 20:00:00 21.9 3 Nordeste 8 Nordeste 0 -- -- 81
2019-08-04 19:00:00 22.2 4 Norte 8 Norte 0 -- -- 80
2019-08-04 18:00:00 22.5 0 Calma 5 Sudoeste 0 -- -- 78
2019-08-04 17:00:00 22.2 3 Sudeste 8 Nordeste 0 -- -- 83
2019-08-04 16:00:00 21.9 5 Norte 12 Nordeste 0 -- -- 83
2019-08-04 15:00:00 22 6 Norte 13 Nordeste 0 -- -- 82
2019-08-04 14:00:00 22.2 5 Nordeste 13 Este 0 -- -- 83
2019-08-04 13:00:00 22.1 9 Nordeste 15 Nordeste 0 -- -- 83
2019-08-04 12:00:00 22.1 8 Nordeste 12 Nordeste 0 -- -- 85
2019-08-04 11:00:00 21.5 3 Este 9 Sur 0 -- -- 88
2019-08-04 10:00:00 19.7 3 Sur 8 Sudeste 0 -- -- 95
2019-08-04 09:00:00 18.4 2 Sur 8 Sur 0 -- -- 98
2019-08-04 08:00:00 17.1 4 Sur 10 Sudoeste 0 -- -- 98
2019-08-04 07:00:00 16.9 7 Sur 10 Sur 0 -- -- 98
2019-08-04 06:00:00 17.2 5 Sur 14 Sur 0 -- -- 98
2019-08-04 05:00:00 16.9 5 Sur 12 Sur 0 -- -- 97
2019-08-04 04:00:00 17.4 7 Sur 10 Sur 0 -- -- 97
2019-08-04 03:00:00 17.2 3 Sur 8 Sur 0 -- -- 95
2019-08-04 02:00:00 17.9 4 Sur 9 Sur 0 -- -- 95
2019-08-04 01:00:00 18.7 3 Sur 6 Oeste 0 -- -- 91
2019-08-04 00:00:00 20 3 Noroeste 5 Noroeste 0 -- -- 90
2019-08-03 23:00:00 20.8 3 Oeste 8 Noroeste 0 -- -- 88
2019-08-03 22:00:00 21.7 4 Noroeste 11 Noroeste 0 -- -- 85
2019-08-03 21:00:00 22 4 Noroeste 18 Noroeste 0 -- -- 84
2019-08-03 20:00:00 22.5 8 Noroeste 17 Noroeste 0 -- -- 81
2019-08-03 19:00:00 22.9 7 Norte 13 Norte 0 -- -- 82
2019-08-03 18:00:00 23.6 6 Nordeste 17 Nordeste 0 -- -- 80
2019-08-03 17:00:00 23.6 11 Nordeste 21 Este 0 -- -- 79
2019-08-03 16:00:00 24 10 Nordeste 23 Nordeste 0 -- -- 78
2019-08-03 15:00:00 23.8 13 Nordeste 23 Nordeste 0 -- -- 78
2019-08-03 14:00:00 23.6 15 Nordeste 24 Nordeste 0 -- -- 78
2019-08-03 13:00:00 23.3 15 Nordeste 26 Este 0 -- -- 79
2019-08-03 12:00:00 23.1 13 Nordeste 22 Nordeste 0 -- -- 78
2019-08-03 11:00:00 22.7 13 Nordeste 22 Nordeste 0 -- -- 78
2019-08-03 10:00:00 20.5 2 Sudeste 9 Sur 0 -- -- 87
2019-08-03 09:00:00 17.5 6 Sur 12 Sur 0 -- -- 97
2019-08-03 08:00:00 15.7 6 Sur 14 Sur 0 -- -- 99
2019-08-03 07:00:00 15.2 4 Sur 13 Sur 0 -- -- 98
2019-08-03 06:00:00 15.6 2 Sudoeste 12 Sur 0 -- -- 98
2019-08-03 05:00:00 15 4 Sur 9 Sur 0 -- -- 98
2019-08-03 04:00:00 15.8 3 Sur 8 Sur 0 -- -- 98
2019-08-03 03:00:00 15.6 3 Sur 4 Sur 0 -- -- 97
2019-08-03 02:00:00 16.4 0 Calma 8 Sur 0 -- -- 96
2019-08-03 01:00:00 16.7 4 Sur 8 Sudeste 0 -- -- 96
2019-08-03 00:00:00 17.5 0 Calma 5 Noroeste 0 -- -- 92
2019-08-02 23:00:00 18.9 0 Calma 6 Sur 0 -- -- 88
2019-08-02 22:00:00 20.3 2 Este 22 Este 0 -- -- 83
2019-08-02 21:00:00 21.3 13 Este 25 Nordeste 0 -- -- 82
2019-08-02 20:00:00 21.9 19 Nordeste 28 Este 0 -- -- 80
2019-08-02 19:00:00 22.2 23 Este 33 Nordeste 0 -- -- 78
2019-08-02 18:00:00 22.4 22 Este 35 Este 0 -- -- 80
2019-08-02 17:00:00 22.4 26 Este 39 Este 0 -- -- 81
2019-08-02 16:00:00 22.8 23 Este 36 Este 0 -- -- 77
2019-08-02 15:00:00 22.9 23 Nordeste 33 Este 0 -- -- 76
2019-08-02 14:00:00 22.9 19 Nordeste 32 Nordeste 0 -- -- 79
2019-08-02 13:00:00 22.7 18 Nordeste 31 Nordeste 0 -- -- 78
2019-08-02 12:00:00 22.7 14 Nordeste 23 Este 0 -- -- 78
2019-08-02 11:00:00 21.6 10 Nordeste 16 Este 0 -- -- 82
2019-08-02 10:00:00 20.9 4 Nordeste 8 Este 0 -- -- 87
2019-08-02 09:00:00 18.8 4 Sur 9 Sur 0 -- -- 96
2019-08-02 08:00:00 17.9 5 Sur 8 Sur 0 -- -- 97
2019-08-02 07:00:00 17.8 4 Sur 8 Sur 0 -- -- 96
2019-08-02 06:00:00 18 3 Sudoeste 6 Sur 0 -- -- 97
2019-08-02 05:00:00 17.8 0 Calma 6 Sur 0 -- -- 97
2019-08-02 04:00:00 17.9 3 Sur 4 Sur 0 -- -- 97
2019-08-02 03:00:00 17.9 2 Noroeste 6 Sur 0 -- -- 96
2019-08-02 02:00:00 18.3 3 Sur 6 Sur 0 -- -- 96
2019-08-02 01:00:00 18.5 0 Calma 10 Sudeste 0 -- -- 96
2019-08-02 00:00:00 18.4 6 Sur 12 Sur 0 -- -- 96
2019-08-01 23:00:00 18.5 4 Sur 7 Sudoeste 0 -- -- 95
2019-08-01 22:00:00 18.7 3 Sur 5 Sur 0 -- -- 94
2019-08-01 21:00:00 18.9 0 Calma 14 Norte 0.2 -- -- 94
2019-08-01 20:00:00 19.7 7 Norte 15 Norte 0 -- -- 88
2019-08-01 19:00:00 20.5 3 Nordeste 9 Norte 0 -- -- 83
2019-08-01 18:00:00 20.5 4 Norte 9 Norte 0 -- -- 83
2019-08-01 17:00:00 20.3 4 Norte 11 Norte 0 -- -- 84
2019-08-01 16:00:00 20.2 4 Norte 11 Noroeste 0 -- -- 85
2019-08-01 15:00:00 20.2 5 Norte 11 Norte 0 -- -- 86
2019-08-01 14:00:00 20 8 Noroeste 16 Noroeste 0 -- -- 86
2019-08-01 13:00:00 20.3 6 Noroeste 13 Oeste 0 -- -- 86
2019-08-01 12:00:00 20 5 Noroeste 9 Oeste 0 -- -- 88
2019-08-01 11:00:00 19.3 4 Noroeste 8 Noroeste 0 -- -- 95
2019-08-01 10:00:00 18 4 Sur 7 Sur 0 -- -- 97
2019-08-01 09:00:00 17.5 5 Sur 10 Sudeste 0.2 -- -- 96
2019-08-01 08:00:00 17.6 4 Sur 10 Sur 0 -- -- 96
2019-08-01 07:00:00 17.4 3 Sur 11 Sur 0 -- -- 96
2019-08-01 06:00:00 17.4 5 Sur 11 Sur 0.2 -- -- 95
2019-08-01 05:00:00 17.7 3 Sur 9 Sudeste 0 -- -- 93
2019-08-01 04:00:00 17.9 5 Sur 8 Sudeste 0 -- -- 90
2019-08-01 03:00:00 17.9 4 Sur 10 Sur 0 -- -- 89
2019-08-01 02:00:00 18.2 4 Sur 9 Sur 0 -- -- 86
2019-08-01 01:00:00 17.9 5 Sur 10 Sur 0 -- -- 87
2019-08-01 00:00:00 18.1 2 Sur 7 Sur 0 -- -- 87
2019-07-31 23:00:00 18.4 0 Calma 5 Sudoeste 0 -- -- 84
2019-07-31 22:00:00 19.4 0 Calma 18 Este 0 -- -- 78
2019-07-31 21:00:00 20.2 9 Nordeste 22 Nordeste 0 -- -- 74
2019-07-31 20:00:00 20.3 10 Este 27 Este 0 -- -- 72
2019-07-31 19:00:00 21.1 17 Este 32 Este 0 -- -- 70
2019-07-31 18:00:00 21 20 Este 32 Este 0 -- -- 72
2019-07-31 17:00:00 21.3 21 Este 31 Este 0 -- -- 71
2019-07-31 16:00:00 21 23 Este 33 Este 0 -- -- 70
2019-07-31 15:00:00 21.2 23 Este 34 Este 0 -- -- 66
2019-07-31 14:00:00 21 20 Nordeste 33 Nordeste 0 -- -- 68
2019-07-31 13:00:00 21.2 18 Nordeste 30 Nordeste 0 -- -- 70
2019-07-31 12:00:00 21.3 15 Nordeste 23 Nordeste 0 -- -- 63
2019-07-31 11:00:00 20.3 5 Sudeste 11 Sudeste 0 -- -- 69
2019-07-31 10:00:00 17.6 8 Sur 17 Sudeste 0 -- -- 79
2019-07-31 09:00:00 15.8 10 Sur 19 Sudeste 0 -- -- 88
2019-07-31 08:00:00 13.6 9 Sur 16 Sur 0 -- -- 96
2019-07-31 07:00:00 13.6 6 Sur 13 Sur 0 -- -- 95
2019-07-31 06:00:00 14.1 8 Sur 14 Sur 0 -- -- 94
2019-07-31 05:00:00 14.4 7 Sur 18 Sur 0 -- -- 94
2019-07-31 04:00:00 14.8 6 Sur 13 Sur 0 -- -- 93
2019-07-31 03:00:00 14.5 6 Sur 11 Sur 0 -- -- 95
2019-07-31 02:00:00 14.5 5 Sur 10 Sur 0 -- -- 93
2019-07-31 01:00:00 14.4 3 Sur 9 Sur 0 -- -- 92
2019-07-31 00:00:00 15 5 Sur 8 Sur 0 -- -- 90
2019-07-30 23:00:00 15.9 0 Calma 4 Noroeste 0 -- -- 86
2019-07-30 22:00:00 18.2 3 Noroeste 7 Noroeste 0 -- -- 76
2019-07-30 21:00:00 20 6 Noroeste 12 Norte 0 -- -- 68
2019-07-30 20:00:00 20.2 6 Noroeste 18 Norte 0 -- -- 68
2019-07-30 19:00:00 20.9 11 Noroeste 22 Noroeste 0 -- -- 64
2019-07-30 18:00:00 21 10 Noroeste 24 Oeste 0 -- -- 65
2019-07-30 17:00:00 21.4 15 Noroeste 31 Noroeste 0 -- -- 63
2019-07-30 16:00:00 21.9 18 Noroeste 32 Noroeste 0 -- -- 57
2019-07-30 15:00:00 21.6 13 Noroeste 32 Noroeste 0 -- -- 61
2019-07-30 14:00:00 21 14 Noroeste 35 Noroeste 0 -- -- 61
2019-07-30 13:00:00 20.6 13 Noroeste 24 Norte 0 -- -- 66
2019-07-30 12:00:00 20.4 12 Noroeste 24 Noroeste 0 -- -- 62
2019-07-30 11:00:00 20.7 9 Oeste 19 Oeste 0 -- -- 64
2019-07-30 10:00:00 19 6 Sudoeste 17 Sudoeste 0 -- -- 70
2019-07-30 09:00:00 18.1 6 Sudoeste 12 Sudoeste 0 -- -- 73
2019-07-30 08:00:00 16.3 5 Sudoeste 12 Sudoeste 0 -- -- 81
2019-07-30 07:00:00 16.6 4 Sudoeste 9 Sudoeste 0 -- -- 78
2019-07-30 06:00:00 17 5 Sudoeste 10 Sudoeste 0 -- -- 83
2019-07-30 05:00:00 17 3 Sudoeste 7 Sudoeste 0 -- -- 90
2019-07-30 04:00:00 16.8 6 Sur 13 Sudoeste 0 -- -- 92
2019-07-30 03:00:00 17.5 5 Sur 11 Sur 0 -- -- 86
2019-07-30 02:00:00 17.6 7 Sudoeste 15 Sudoeste 0 -- -- 84
2019-07-30 01:00:00 17.6 6 Sudoeste 15 Sudoeste 0 -- -- 87
2019-07-30 00:00:00 18.5 6 Sudoeste 13 Sudoeste 0 -- -- 82
2019-07-29 23:00:00 18.3 6 Sudoeste 17 Oeste 0 -- -- 85
2019-07-29 22:00:00 19.5 9 Oeste 22 Oeste 0 -- -- 75
2019-07-29 21:00:00 19.4 3 Sur 8 Sudoeste 0 -- -- 85
2019-07-29 20:00:00 19.8 4 Sur 10 Sur 0 -- -- 80
2019-07-29 19:00:00 20.1 6 Oeste 19 Norte 0 -- -- 78
2019-07-29 18:00:00 21.7 3 Noroeste 10 Oeste 0 -- -- 73
2019-07-29 17:00:00 22 4 Oeste 10 Noroeste 0 -- -- 71
2019-07-29 16:00:00 21.7 0 Calma 9 Noroeste 0 -- -- 75
2019-07-29 15:00:00 21.2 7 Noroeste 20 Noroeste 0 -- -- 73
2019-07-29 14:00:00 21.3 6 Noroeste 23 Noroeste 0 -- -- 76
2019-07-29 13:00:00 22.3 14 Noroeste 23 Noroeste 0 -- -- 72
2019-07-29 12:00:00 23.7 10 Norte 25 Noroeste 0 -- -- 70
2019-07-29 11:00:00 23.4 10 Noroeste 25 Noroeste 0 -- -- 75
2019-07-29 10:00:00 21.8 8 Oeste 17 Sudoeste 0 -- -- 81
2019-07-29 09:00:00 17 9 Sur 15 Sudeste 0 -- -- 96
2019-07-29 08:00:00 15 6 Sur 12 Sudeste 0 -- -- 98
2019-07-29 07:00:00 14.6 5 Sur 9 Sur 0 -- -- 98
2019-07-29 06:00:00 14.3 3 Sur 12 Sur 0 -- -- 98
2019-07-29 05:00:00 14.6 7 Sur 12 Sur 0 -- -- 98
2019-07-29 04:00:00 14.8 5 Sur 10 Sur 0 -- -- 97
2019-07-29 03:00:00 15 6 Sur 12 Sur 0 -- -- 97
2019-07-29 02:00:00 15 5 Sur 7 Sur 0 -- -- 95
2019-07-29 01:00:00 15.7 0 Calma 5 Sur 0 -- -- 93
2019-07-29 00:00:00 16.9 2 Sur 5 Sur 0 -- -- 90
2019-07-28 23:00:00 18.5 3 Sur 8 Nordeste 0 -- -- 85
2019-07-28 22:00:00 20.1 4 Este 14 Este 0 -- -- 77
2019-07-28 21:00:00 21.3 10 Este 23 Este 0 -- -- 74
2019-07-28 20:00:00 21.8 17 Nordeste 25 Este 0 -- -- 69
2019-07-28 19:00:00 21.9 19 Nordeste 32 Este 0 -- -- 66
2019-07-28 18:00:00 22 18 Nordeste 28 Este 0 -- -- 70
2019-07-28 17:00:00 22 14 Nordeste 28 Nordeste 0 -- -- 67
2019-07-28 16:00:00 21.6 17 Nordeste 26 Este 0 -- -- 70
2019-07-28 15:00:00 21.5 14 Nordeste 21 Nordeste 0 -- -- 70
2019-07-28 14:00:00 21.4 9 Nordeste 21 Norte 0 -- -- 76
2019-07-28 13:00:00 21.9 10 Nordeste 19 Nordeste 0 -- -- 71
2019-07-28 12:00:00 22 5 Noroeste 14 Nordeste 0 -- -- 69
2019-07-28 11:00:00 20.6 4 Este 10 Sudeste 0 -- -- 75
2019-07-28 10:00:00 18.7 4 Sudeste 15 Sur 0 -- -- 90
2019-07-28 09:00:00 16.7 7 Sur 12 Sudeste 0 -- -- 96
2019-07-28 08:00:00 16 4 Sur 10 Sur 0 -- -- 97
2019-07-28 07:00:00 15.5 2 Sudoeste 10 Sur 0 -- -- 96
2019-07-28 06:00:00 15.9 6 Sur 10 Sur 0 -- -- 96
2019-07-28 05:00:00 16.1 5 Sudeste 12 Sudoeste 2 -- -- 94
2019-07-28 04:00:00 16.5 5 Sur 20 Sudoeste 0 -- -- 90
2019-07-28 03:00:00 16.1 5 Sur 15 Sudoeste 0 -- -- 93
2019-07-28 02:00:00 16.1 3 Sudeste 12 Sudeste 0 -- -- 91
2019-07-28 01:00:00 16.4 5 Sudeste 14 Sudoeste 0.2 -- -- 90
2019-07-28 00:00:00 16.4 4 Sudoeste 20 Oeste 0 -- -- 90
2019-07-27 23:00:00 16.6 4 Oeste 13 Noroeste 0 -- -- 89
2019-07-26 12:00:00 -- -- -- -- -- -- -- -- --
2019-07-26 11:00:00 18 3 Oeste 21 Sudoeste 1 -- -- 95
2019-07-26 10:00:00 18.5 5 Oeste 10 Oeste 0.2 -- -- 97
2019-07-26 09:00:00 18.3 3 Sudoeste 7 Sur 0 -- -- 97
2019-07-26 08:00:00 18.1 3 Oeste 17 Oeste 0.6 -- -- 98
2019-07-26 07:00:00 18.5 4 Noroeste 26 Oeste 1.2 -- -- 98
2019-07-26 06:00:00 19.1 8 Oeste 13 Oeste 0.4 -- -- 97
2019-07-26 05:00:00 19.6 5 Noroeste 13 Noroeste 0.4 -- -- 97
2019-07-26 04:00:00 20.3 4 Norte 16 Norte 1.4 -- -- 97
2019-07-26 03:00:00 20.7 3 Noroeste 6 Noroeste 0.2 -- -- 95
2019-07-26 02:00:00 21 3 Noroeste 11 Norte 0 -- -- 94
2019-07-26 01:00:00 21.9 7 Noroeste 11 Noroeste 0 -- -- 90
2019-07-26 00:00:00 22.4 4 Sudoeste 8 Sudoeste 0 -- -- 85
2019-07-25 23:00:00 22.5 3 Oeste 6 Oeste 0 -- -- 85
2019-07-25 22:00:00 22.8 3 Oeste 18 Noroeste 0 -- -- 85
2019-07-25 21:00:00 23.3 10 Noroeste 20 Noroeste 0 -- -- 84
2019-07-25 20:00:00 23.8 5 Norte 15 Norte 0 -- -- 85
2019-07-25 19:00:00 23.7 5 Norte 14 Nordeste 0 -- -- 86
2019-07-25 18:00:00 23.9 7 Norte 15 Noroeste 0 -- -- 84
2019-07-25 17:00:00 24.5 9 Norte 18 Nordeste 0 -- -- 82
2019-07-25 16:00:00 24.8 9 Nordeste 18 Norte 0 -- -- 83
2019-07-25 15:00:00 25.2 8 Nordeste 22 Norte 0 -- -- 81
2019-07-25 14:00:00 26.1 10 Nordeste 19 Nordeste 0 -- -- 78
2019-07-25 13:00:00 26 8 Nordeste 16 Norte 0 -- -- 79
2019-07-25 12:00:00 25.6 8 Nordeste 14 Norte 0 -- -- 81
2019-07-25 11:00:00 24.1 5 Norte 14 Norte 0 -- -- 86
2019-07-25 10:00:00 23.2 6 Noroeste 12 Noroeste 0 -- -- 90
2019-07-25 09:00:00 22.7 2 Noroeste 6 Noroeste 0 -- -- 94
2019-07-25 08:00:00 21.3 0 Calma 5 Noroeste 0 -- -- 96
2019-07-25 07:00:00 21.5 0 Calma 6 Sur 0 -- -- 95
2019-07-25 06:00:00 22 0 Calma 6 Noroeste 0 -- -- 92
2019-07-25 05:00:00 22.8 5 Noroeste 10 Noroeste 0 -- -- 89
2019-07-25 04:00:00 22.8 3 Noroeste 10 Oeste 0 -- -- 90
2019-07-25 03:00:00 22.7 5 Sudoeste 10 Oeste 0 -- -- 92
2019-07-25 02:00:00 22.9 5 Oeste 18 Oeste 0 -- -- 93
2019-07-25 01:00:00 23.1 7 Oeste 18 Noroeste 0 -- -- 93
2019-07-25 00:00:00 23.4 8 Noroeste 20 Norte 0 -- -- 92
2019-07-24 23:00:00 23.7 8 Norte 14 Norte 0 -- -- 91
2019-07-24 22:00:00 23.9 2 Norte 8 Nordeste 0 -- -- 90
2019-07-24 21:00:00 24.7 4 Norte 17 Nordeste 0 -- -- 88
2019-07-24 20:00:00 24.9 11 Nordeste 24 Este 0 -- -- 87
2019-07-24 19:00:00 25.2 11 Nordeste 28 Este 0 -- -- 85
2019-07-24 18:00:00 25.2 17 Nordeste 31 Este 0 -- -- 85
2019-07-24 17:00:00 25.6 17 Nordeste 26 Este 0 -- -- 83
2019-07-24 16:00:00 25.3 15 Nordeste 27 Este 0 -- -- 83
2019-07-24 15:00:00 25.5 14 Nordeste 24 Nordeste 0 -- -- 83
2019-07-24 14:00:00 25.5 11 Nordeste 27 Nordeste 0 -- -- 82
2019-07-24 13:00:00 25.2 13 Nordeste 26 Nordeste 0 -- -- 81
2019-07-24 12:00:00 24.7 10 Nordeste 15 Nordeste 0 -- -- 85
2019-07-24 11:00:00 23.6 5 Este 8 Nordeste 0 -- -- 88
2019-07-24 10:00:00 22.4 2 Sudeste 4 Sudeste 0 -- -- 93
2019-07-24 09:00:00 21.1 4 Sur 8 Sur 0 -- -- 96
2019-07-24 08:00:00 20.6 3 Sur 6 Sur 0 -- -- 97
2019-07-24 07:00:00 20.3 4 Sur 6 Sur 0 -- -- 97
2019-07-24 06:00:00 19.7 0 Calma 5 Noroeste 0 -- -- 96
2019-07-24 05:00:00 20.3 3 Noroeste 14 Noroeste 0 -- -- 96
2019-07-24 04:00:00 20.7 4 Sudoeste 9 Este 0 -- -- 97
2019-07-24 03:00:00 20.8 5 Sudoeste 14 Sur 0 -- -- 96
2019-07-24 02:00:00 21.2 2 Sur 6 Sur 0 -- -- 94
2019-07-24 01:00:00 21.7 0 Calma 15 Noroeste 0 -- -- 93
2019-07-24 00:00:00 22.1 6 Nordeste 17 Noroeste 0 -- -- 92
2019-07-23 23:00:00 22.4 5 Oeste 18 Oeste 0 -- -- 91
2019-07-23 22:00:00 22.8 6 Nordeste 24 Norte 0.4 -- -- 87
2019-07-23 21:00:00 23.7 16 Noroeste 34 Oeste 0 -- -- 81
2019-07-23 20:00:00 25.7 18 Noroeste 30 Noroeste 0 -- -- 75
2019-07-23 19:00:00 26.6 13 Noroeste 26 Norte 0 -- -- 75
2019-07-23 18:00:00 27.2 13 Norte 29 Noroeste 0 -- -- 74
2019-07-23 17:00:00 27.8 12 Norte 26 Norte 0 -- -- 74
2019-07-23 16:00:00 28.8 12 Norte 22 Nordeste 0 -- -- 72
2019-07-23 15:00:00 31 9 Norte 19 Noroeste 0 -- -- 66
2019-07-23 14:00:00 29.8 13 Noroeste 22 Noroeste 0 -- -- 66
2019-07-23 13:00:00 28.9 7 Norte 18 Norte 0 -- -- 60
2019-07-23 12:00:00 29.6 3 Nordeste 15 Noroeste 0 -- -- 63
2019-07-23 11:00:00 26.3 4 Nordeste 13 Norte 0 -- -- 72
2019-07-23 10:00:00 24.9 3 Norte 8 Este 0 -- -- 86
2019-07-23 09:00:00 22.1 5 Este 8 Este 0 -- -- 95
2019-07-23 08:00:00 19.2 3 Sur 5 Sur 0 -- -- 99
2019-07-23 07:00:00 18.3 0 Calma 5 Noroeste 0 -- -- 97
2019-07-23 06:00:00 19.2 4 Sur 10 Norte 0 -- -- 97
2019-07-23 05:00:00 19.5 3 Norte 8 Sudeste 0 -- -- 96
2019-07-23 04:00:00 21.1 0 Calma 10 Nordeste 0 -- -- 94
2019-07-23 03:00:00 21.1 4 Sudeste 13 Sudoeste 0 -- -- 96
2019-07-23 02:00:00 21 5 Sudeste 12 Sur 0 -- -- 94
2019-07-23 01:00:00 21.7 7 Sur 12 Sur 0 -- -- 92
2019-07-23 00:00:00 21.7 0 Calma 7 Sur 0 -- -- 90
2019-07-22 23:00:00 22.9 4 Noroeste 22 Oeste 0 -- -- 87
2019-07-22 22:00:00 22.4 0 Calma 6 Este 0 -- -- 89
2019-07-22 21:00:00 23.2 4 Nordeste 13 Nordeste 0 -- -- 86
2019-07-22 20:00:00 24.1 6 Nordeste 15 Este 0 -- -- 84
2019-07-22 19:00:00 24.7 8 Nordeste 17 Nordeste 0 -- -- 82
2019-07-22 18:00:00 24.9 10 Nordeste 20 Nordeste 0 -- -- 83
2019-07-22 17:00:00 24.9 13 Nordeste 23 Nordeste 0 -- -- 80
2019-07-22 16:00:00 25.2 11 Nordeste 21 Nordeste 0 -- -- 79
2019-07-22 15:00:00 25 12 Nordeste 26 Este 0 -- -- 79
2019-07-22 14:00:00 24.7 14 Nordeste 32 Este 0 -- -- 79
2019-07-22 13:00:00 24.1 21 Nordeste 31 Nordeste 0 -- -- 80
2019-07-22 12:00:00 24.2 18 Nordeste 32 Nordeste 0 -- -- 80
2019-07-22 11:00:00 24.5 11 Nordeste 22 Nordeste 0 -- -- 77
2019-07-22 10:00:00 24.2 4 Sur 12 Este 0 -- -- 76
2019-07-22 09:00:00 22.1 5 Sudeste 9 Sur 0 -- -- 87
2019-07-22 08:00:00 20.8 2 Sur 6 Sur 0 -- -- 91
2019-07-22 07:00:00 20.5 3 Sur 6 Sur 0 -- -- 92
2019-07-22 06:00:00 20.5 0 Calma 8 Sudoeste 0 -- -- 92
2019-07-22 05:00:00 20.6 4 Sur 6 Sur 0 -- -- 91
2019-07-22 04:00:00 20.9 0 Calma 0 Calma 0 -- -- 91
2019-07-22 03:00:00 21.1 0 Calma 7 Sur 0 -- -- 89
2019-07-22 02:00:00 21.4 0 Calma 9 Este 0 -- -- 86
2019-07-22 01:00:00 21.7 5 Este 8 Este 0 -- -- 84
2019-07-22 00:00:00 21.8 2 Este 11 Este 0 -- -- 84
2019-07-21 23:00:00 22 6 Este 13 Este 0 -- -- 84
2019-07-21 22:00:00 22.2 6 Este 15 Nordeste 0 -- -- 84
2019-07-21 21:00:00 22.8 6 Nordeste 13 Este 0 -- -- 79
2019-07-21 20:00:00 23 5 Este 15 Este 0 -- -- 80
2019-07-21 19:00:00 22.7 9 Este 18 Este 0 -- -- 81
2019-07-21 18:00:00 23.2 12 Nordeste 24 Nordeste 0 -- -- 79
2019-07-21 17:00:00 23.4 13 Nordeste 27 Nordeste 0 -- -- 75
2019-07-21 16:00:00 22.9 15 Nordeste 24 Nordeste 0 -- -- 82
2019-07-21 15:00:00 22.1 9 Nordeste 22 Este 0 -- -- 87
2019-07-21 14:00:00 21.1 15 Este 23 Este 0 -- -- 87
2019-07-21 13:00:00 21.5 8 Este 15 Este 0 -- -- 87
2019-07-21 12:00:00 21 4 Este 14 Este 0 -- -- 90
2019-07-21 11:00:00 20.5 0 Calma 16 Este 0 -- -- 94
2019-07-21 10:00:00 20.2 5 Este 12 Este 0.2 -- -- 95
2019-07-21 09:00:00 20.2 2 Sur 4 Sur 0 -- -- 95
2019-07-21 08:00:00 19.9 0 Calma 5 Sur 0 -- -- 96
2019-07-21 07:00:00 19.7 0 Calma 4 Sur 0 -- -- 95
2019-07-21 06:00:00 19.4 0 Calma 8 Sur 0 -- -- 95
2019-07-21 05:00:00 19.6 5 Sur 9 Sur 0 -- -- 95
2019-07-21 04:00:00 19.8 4 Sur 10 Sur 0 -- -- 94
2019-07-21 03:00:00 20.1 4 Sur 10 Sur 0 -- -- 94
2019-07-21 02:00:00 20.4 3 Sur 9 Sur 0 -- -- 92
2019-07-21 01:00:00 21.2 2 Sur 5 Oeste 0 -- -- 90
2019-07-21 00:00:00 21.4 2 Noroeste 4 Oeste 0 -- -- 88